Time;durP1;ratioP1;P1;durP2;ratioP2;P2;SDS_P1;SDS_P2;PMS_P1;PMS_P2;Temp;Humidity;BMP_temperature;BMP_pressure;BME280_temperature;BME280_humidity;BME280_pressure;Samples;Min_cycle;Max_cycle;Signal;HPM_P1;HPM_P2
2023/03/10 00:00:54;;;;;;;33.93;23.73;;;2.30;99.90;;;;;;4843255;29;20592;-58
2023/03/10 00:03:22;;;;;;;31.20;20.43;;;2.20;99.90;;;;;;4843553;29;20485;-58
2023/03/10 00:05:52;;;;;;;34.23;22.73;;;2.30;99.90;;;;;;4843466;29;20500;-57
2023/03/10 00:08:21;;;;;;;32.60;22.23;;;2.20;99.90;;;;;;4843563;29;20515;-58
2023/03/10 00:10:50;;;;;;;31.77;21.87;;;2.20;99.90;;;;;;4843730;29;20486;-58
2023/03/10 00:13:19;;;;;;;30.53;21.30;;;2.10;99.90;;;;;;4856318;29;20514;-57
2023/03/10 00:15:49;;;;;;;31.00;21.33;;;2.10;99.90;;;;;;4859946;29;20984;-58
2023/03/10 00:18:17;;;;;;;30.27;20.57;;;2.10;99.90;;;;;;4861776;29;20564;-59
2023/03/10 00:20:45;;;;;;;31.13;21.63;;;2.10;99.90;;;;;;4860080;29;20491;-58
2023/03/10 00:23:16;;;;;;;29.93;21.23;;;2.10;99.90;;;;;;4851591;29;20479;-58
2023/03/10 00:25:44;;;;;;;32.83;22.17;;;2.10;99.90;;;;;;4853554;29;20500;-58
2023/03/10 00:28:13;;;;;;;31.90;21.83;;;2.10;99.90;;;;;;4861872;29;20890;-58
2023/03/10 00:30:41;;;;;;;31.83;22.30;;;2.10;99.90;;;;;;4861025;29;20516;-58
2023/03/10 00:33:10;;;;;;;32.83;21.73;;;2.10;99.90;;;;;;4861511;29;20502;-58
2023/03/10 00:35:39;;;;;;;32.10;21.53;;;2.00;99.90;;;;;;4860049;29;20490;-58
2023/03/10 00:38:07;;;;;;;29.67;21.00;;;1.90;99.90;;;;;;4861449;29;20864;-58
2023/03/10 00:40:38;;;;;;;31.03;20.03;;;1.90;99.90;;;;;;4861254;29;20535;-58
2023/03/10 00:43:06;;;;;;;29.43;20.37;;;1.90;99.90;;;;;;4857510;29;20508;-58
2023/03/10 00:45:35;;;;;;;28.10;19.27;;;1.90;99.90;;;;;;4857769;29;20961;-58
2023/03/10 00:48:04;;;;;;;32.97;22.37;;;2.00;99.90;;;;;;4861254;29;20559;-58
2023/03/10 00:50:33;;;;;;;35.20;23.10;;;2.00;99.90;;;;;;4860963;29;20473;-58
2023/03/10 00:53:01;;;;;;;36.97;24.33;;;2.00;99.90;;;;;;4846491;29;20989;-58
2023/03/10 00:55:29;;;;;;;39.13;25.20;;;2.00;99.90;;;;;;4851781;29;20474;-58
2023/03/10 00:57:59;;;;;;;35.30;24.47;;;2.10;99.90;;;;;;4861093;29;20472;-58
2023/03/10 01:00:27;;;;;;;38.10;25.03;;;2.10;99.90;;;;;;4843988;29;20476;-58
2023/03/10 01:02:56;;;;;;;36.97;25.13;;;2.00;99.90;;;;;;4845041;29;20473;-58
2023/03/10 01:05:27;;;;;;;37.73;24.83;;;2.00;99.90;;;;;;4841066;29;20513;-58
2023/03/10 01:07:56;;;;;;;34.90;24.20;;;2.00;99.90;;;;;;4842478;29;20466;-58
2023/03/10 01:10:25;;;;;;;32.00;22.83;;;2.00;99.90;;;;;;4841186;29;20486;-58
2023/03/10 01:12:54;;;;;;;32.13;21.80;;;2.00;99.90;;;;;;4848693;29;20995;-58
2023/03/10 01:15:24;;;;;;;32.00;22.73;;;2.00;99.90;;;;;;4855398;29;20484;-58
2023/03/10 01:17:52;;;;;;;32.67;22.70;;;2.00;99.90;;;;;;4860533;29;20467;-58
2023/03/10 01:20:21;;;;;;;33.23;23.10;;;2.00;99.90;;;;;;4859274;29;20477;-58
2023/03/10 01:22:49;;;;;;;34.87;23.20;;;2.00;99.90;;;;;;4848616;29;20466;-58
2023/03/10 01:25:17;;;;;;;34.23;22.90;;;2.00;99.90;;;;;;4852847;29;20504;-58
2023/03/10 01:27:46;;;;;;;35.60;24.97;;;2.00;99.90;;;;;;4860449;29;20504;-58
2023/03/10 01:30:15;;;;;;;35.23;22.67;;;2.00;99.90;;;;;;4858980;29;20549;-58
2023/03/10 01:32:46;;;;;;;35.03;22.60;;;2.00;99.90;;;;;;4859133;29;20500;-58
2023/03/10 01:35:14;;;;;;;36.13;24.63;;;2.00;99.90;;;;;;4860644;29;20493;-58
2023/03/10 01:37:43;;;;;;;34.73;24.27;;;1.90;99.90;;;;;;4860323;29;20505;-58
2023/03/10 01:40:15;;;;;;;32.53;23.10;;;1.90;99.90;;;;;;4860481;29;20478;-58
2023/03/10 01:42:44;;;;;;;32.13;23.17;;;1.90;99.90;;;;;;4859373;29;21003;-58
2023/03/10 01:45:45;;;;;;;33.90;22.37;;;1.90;99.90;;;;;;4853888;29;20488;-58
2023/03/10 01:48:17;;;;;;;31.97;21.20;;;1.90;99.90;;;;;;4859059;29;20488;-58
2023/03/10 01:50:49;;;;;;;32.73;23.30;;;2.00;99.90;;;;;;4857554;29;20477;-58
2023/03/10 01:53:20;;;;;;;32.27;23.50;;;2.00;99.90;;;;;;4850989;29;20500;-58
2023/03/10 01:55:53;;;;;;;33.10;23.47;;;2.00;99.90;;;;;;4866566;29;20467;-58
2023/03/10 01:58:24;;;;;;;32.40;23.60;;;2.10;99.90;;;;;;4859833;29;20509;-58
2023/03/10 02:00:54;;;;;;;33.47;22.30;;;2.00;99.90;;;;;;4840151;29;20477;-58
2023/03/10 02:03:28;;;;;;;33.03;20.97;;;2.00;99.90;;;;;;4841894;29;20474;-58
2023/03/10 02:05:59;;;;;;;31.67;21.67;;;2.10;99.90;;;;;;4840502;29;20861;-58
2023/03/10 02:08:33;;;;;;;29.03;19.73;;;2.10;99.90;;;;;;4841681;29;20469;-58
2023/03/10 02:11:02;;;;;;;30.40;19.30;;;2.00;99.90;;;;;;4841738;29;20472;-58
2023/03/10 02:13:31;;;;;;;29.87;20.27;;;2.10;99.90;;;;;;4848974;29;20493;-58
2023/03/10 02:15:59;;;;;;;26.67;18.50;;;2.00;99.90;;;;;;4859973;29;21000;-58
2023/03/10 02:18:31;;;;;;;26.37;17.97;;;2.10;99.90;;;;;;4860003;29;20464;-58
2023/03/10 02:21:07;;;;;;;29.70;19.20;;;2.10;99.90;;;;;;4856810;29;20481;-58
2023/03/10 02:23:44;;;;;;;26.13;17.90;;;2.10;99.90;;;;;;4851389;29;20481;-58
2023/03/10 02:26:37;;;;;;;26.17;18.47;;;2.10;99.90;;;;;;4850894;29;20855;-58
2023/03/10 02:29:11;;;;;;;27.43;19.13;;;2.00;99.90;;;;;;4860058;29;20516;-58
2023/03/10 02:31:40;;;;;;;27.53;18.47;;;2.00;99.90;;;;;;4861884;29;21058;-58
2023/03/10 02:34:08;;;;;;;26.50;18.43;;;2.00;99.90;;;;;;4862406;29;20513;-58
2023/03/10 02:36:36;;;;;;;26.00;18.10;;;2.00;99.90;;;;;;4863370;29;20476;-58
2023/03/10 02:39:05;;;;;;;27.53;18.53;;;2.00;99.90;;;;;;4862241;29;20480;-58
2023/03/10 02:41:36;;;;;;;28.07;20.13;;;2.00;99.90;;;;;;4857445;29;21100;-58
2023/03/10 02:44:11;;;;;;;25.90;17.50;;;2.00;99.90;;;;;;4859305;29;20633;-58
2023/03/10 02:46:40;;;;;;;26.37;17.67;;;2.00;99.90;;;;;;4844547;29;20503;-58
2023/03/10 02:49:10;;;;;;;27.13;18.40;;;1.90;99.90;;;;;;4843665;29;20904;-58
2023/03/10 02:51:45;;;;;;;28.10;19.13;;;1.90;99.90;;;;;;4842983;29;20542;-57
2023/03/10 02:54:19;;;;;;;27.70;19.57;;;1.90;99.90;;;;;;4851018;29;20576;-58
2023/03/10 02:56:48;;;;;;;25.33;18.50;;;1.90;99.90;;;;;;4856915;29;20917;-58
2023/03/10 02:59:19;;;;;;;28.13;18.97;;;1.90;99.90;;;;;;4855519;29;20474;-58
2023/03/10 03:01:51;;;;;;;27.13;18.53;;;1.90;99.90;;;;;;4843043;29;20894;-59
2023/03/10 03:04:20;;;;;;;29.37;18.50;;;1.90;99.90;;;;;;4843440;29;20907;-58
2023/03/10 03:06:49;;;;;;;26.67;18.27;;;1.90;99.90;;;;;;4843121;29;20589;-59
2023/03/10 03:09:17;;;;;;;30.57;20.70;;;2.00;99.90;;;;;;4843261;29;20477;-58
2023/03/10 03:11:47;;;;;;;30.77;20.07;;;2.00;99.90;;;;;;4845114;29;20915;-58
2023/03/10 03:14:18;;;;;;;31.90;19.70;;;1.90;99.90;;;;;;4855057;29;20567;-58
2023/03/10 03:16:48;;;;;;;30.80;20.10;;;1.90;99.90;;;;;;4861465;29;20477;-58
2023/03/10 03:19:18;;;;;;;31.33;21.43;;;1.90;99.90;;;;;;4861581;29;20485;-58
2023/03/10 03:21:48;;;;;;;31.63;20.80;;;1.90;99.90;;;;;;4853354;29;20468;-58
2023/03/10 03:24:19;;;;;;;30.10;20.33;;;1.80;99.90;;;;;;4850499;29;20476;-58
2023/03/10 03:26:48;;;;;;;29.67;19.60;;;1.80;99.90;;;;;;4857721;29;20493;-58
2023/03/10 03:29:21;;;;;;;28.27;20.37;;;1.80;99.90;;;;;;4842857;29;20473;-58
2023/03/10 03:31:50;;;;;;;25.93;18.37;;;1.80;99.90;;;;;;4842409;29;20489;-58
2023/03/10 03:34:22;;;;;;;30.03;20.27;;;1.80;99.90;;;;;;4842904;29;20850;-58
2023/03/10 03:36:53;;;;;;;28.50;18.93;;;1.80;99.90;;;;;;4842842;29;20545;-58
2023/03/10 03:39:28;;;;;;;29.20;19.33;;;1.80;99.90;;;;;;4842663;29;20539;-58
2023/03/10 03:42:00;;;;;;;29.13;20.23;;;1.80;99.90;;;;;;4852918;29;20475;-58
2023/03/10 03:44:38;;;;;;;28.10;18.73;;;1.80;99.90;;;;;;4853220;29;20568;-58
2023/03/10 03:47:09;;;;;;;29.83;20.17;;;1.70;99.90;;;;;;4862576;29;21053;-58
2023/03/10 03:49:38;;;;;;;29.77;19.53;;;1.80;99.90;;;;;;4860963;29;20480;-58
2023/03/10 03:52:08;;;;;;;29.07;20.73;;;1.70;99.90;;;;;;4849168;29;20480;-58
2023/03/10 03:54:37;;;;;;;26.20;18.07;;;1.70;99.90;;;;;;4865212;29;20893;-58
2023/03/10 03:57:06;;;;;;;28.60;19.03;;;1.70;99.90;;;;;;4824415;29;20478;-58
2023/03/10 03:59:38;;;;;;;28.73;19.37;;;1.70;99.90;;;;;;4843474;29;20511;-58
2023/03/10 04:02:07;;;;;;;28.17;18.63;;;1.80;99.90;;;;;;4860621;29;20497;-58
2023/03/10 04:04:36;;;;;;;30.17;20.67;;;1.70;99.90;;;;;;4861061;29;20476;-58
2023/03/10 04:07:08;;;;;;;29.13;19.10;;;1.70;99.90;;;;;;4865287;29;20502;-58
2023/03/10 04:09:38;;;;;;;26.87;19.40;;;1.60;99.90;;;;;;4863487;29;20992;-58
2023/03/10 04:12:08;;;;;;;29.37;18.93;;;1.60;99.90;;;;;;4862231;29;20886;-58
2023/03/10 04:14:42;;;;;;;27.33;18.53;;;1.60;99.90;;;;;;4852822;29;20559;-58
2023/03/10 04:17:15;;;;;;;30.93;20.37;;;1.60;99.90;;;;;;4861980;29;20983;-58
2023/03/10 04:19:44;;;;;;;29.53;19.87;;;1.60;99.90;;;;;;4860371;29;20463;-58
2023/03/10 04:22:24;;;;;;;27.83;17.33;;;1.70;99.90;;;;;;4846368;29;20513;-57
2023/03/10 04:24:54;;;;;;;31.17;19.30;;;1.60;99.90;;;;;;4866876;29;20476;-57
2023/03/10 04:27:22;;;;;;;27.20;19.03;;;1.70;99.90;;;;;;4860353;29;20502;-58
2023/03/10 04:29:52;;;;;;;28.13;18.67;;;1.70;99.90;;;;;;4860255;29;20472;-57
2023/03/10 04:32:22;;;;;;;28.67;18.93;;;1.60;99.90;;;;;;4859950;29;20513;-57
2023/03/10 04:34:50;;;;;;;28.63;19.60;;;1.60;99.90;;;;;;4860178;29;20472;-58
2023/03/10 04:37:20;;;;;;;28.83;19.63;;;1.60;99.90;;;;;;4860255;29;20504;-57
2023/03/10 04:39:49;;;;;;;29.40;19.63;;;1.60;99.90;;;;;;4860022;29;20501;-57
2023/03/10 04:42:18;;;;;;;27.57;18.47;;;1.60;99.90;;;;;;4860048;29;20524;-57
2023/03/10 04:44:47;;;;;;;30.40;20.77;;;1.50;99.90;;;;;;4852266;29;20497;-57
2023/03/10 04:47:17;;;;;;;31.43;20.23;;;1.50;99.90;;;;;;4861258;29;20530;-58
2023/03/10 04:49:45;;;;;;;29.43;19.60;;;1.60;99.90;;;;;;4852824;29;20526;-58
2023/03/10 04:52:14;;;;;;;30.80;20.40;;;1.60;99.90;;;;;;4857982;29;20572;-57
2023/03/10 04:54:45;;;;;;;32.03;21.23;;;1.50;99.90;;;;;;4850293;29;20847;-57
2023/03/10 04:57:15;;;;;;;30.87;21.07;;;1.50;99.90;;;;;;4861389;29;20547;-58
2023/03/10 04:59:46;;;;;;;30.03;19.90;;;1.60;99.90;;;;;;4848376;29;20485;-57
2023/03/10 05:02:16;;;;;;;29.37;20.23;;;1.60;99.90;;;;;;4840852;29;20505;-57
2023/03/10 05:04:48;;;;;;;31.03;20.57;;;1.50;99.90;;;;;;4841180;29;20485;-58
2023/03/10 05:07:16;;;;;;;29.77;19.53;;;1.50;99.90;;;;;;4842390;29;20501;-58
2023/03/10 05:09:48;;;;;;;32.83;21.03;;;1.60;99.90;;;;;;4841191;29;20970;-57
2023/03/10 05:12:16;;;;;;;33.47;21.53;;;1.50;99.90;;;;;;4853831;29;20468;-58
2023/03/10 05:14:45;;;;;;;31.77;20.93;;;1.50;99.90;;;;;;4852866;29;20954;-57
2023/03/10 05:17:13;;;;;;;30.40;20.93;;;1.50;99.90;;;;;;4860848;29;20814;-57
2023/03/10 05:19:45;;;;;;;29.97;20.27;;;1.50;99.90;;;;;;4859435;29;21004;-58
2023/03/10 05:22:14;;;;;;;28.53;19.23;;;1.50;99.90;;;;;;4846744;29;20535;-57
2023/03/10 05:24:42;;;;;;;31.63;20.53;;;1.60;99.90;;;;;;4864214;29;21044;-57
2023/03/10 05:27:13;;;;;;;31.63;21.30;;;1.60;99.90;;;;;;4859356;29;20518;-57
2023/03/10 05:29:44;;;;;;;33.77;21.43;;;1.60;99.90;;;;;;4860477;29;20472;-57
2023/03/10 05:32:19;;;;;;;32.30;20.73;;;1.70;99.90;;;;;;4858969;29;20497;-57
2023/03/10 05:34:50;;;;;;;35.57;23.33;;;1.60;99.90;;;;;;4859199;29;20845;-58
2023/03/10 05:37:19;;;;;;;34.60;23.00;;;1.60;99.90;;;;;;4859290;29;20515;-58
2023/03/10 05:39:48;;;;;;;31.03;20.40;;;1.50;99.90;;;;;;4859107;29;20468;-58
2023/03/10 05:42:20;;;;;;;31.57;19.93;;;1.50;99.90;;;;;;4859130;29;20480;-58
2023/03/10 05:44:51;;;;;;;34.53;22.23;;;1.60;99.90;;;;;;4851208;29;20472;-57
2023/03/10 05:47:19;;;;;;;33.20;22.20;;;1.50;99.90;;;;;;4854422;29;20490;-58
2023/03/10 05:49:50;;;;;;;31.07;21.10;;;1.60;99.90;;;;;;4844714;29;20812;-57
2023/03/10 05:52:19;;;;;;;29.10;21.00;;;1.50;99.90;;;;;;4841050;29;20831;-58
2023/03/10 05:54:47;;;;;;;31.33;21.47;;;1.60;99.90;;;;;;4834521;29;20508;-57
2023/03/10 05:57:15;;;;;;;31.37;21.33;;;1.60;99.90;;;;;;4840334;29;20523;-58
2023/03/10 05:59:43;;;;;;;32.57;20.90;;;1.60;99.90;;;;;;4839481;29;20477;-58
2023/03/10 06:02:12;;;;;;;34.17;22.33;;;1.60;99.90;;;;;;4843471;29;20493;-58
2023/03/10 06:04:40;;;;;;;34.00;22.33;;;1.50;99.90;;;;;;4843079;29;20480;-58
2023/03/10 06:07:09;;;;;;;30.57;19.70;;;1.50;99.90;;;;;;4844594;29;21101;-58
2023/03/10 06:09:37;;;;;;;29.63;20.73;;;1.50;99.90;;;;;;4844086;29;20507;-58
2023/03/10 06:12:06;;;;;;;30.80;20.97;;;1.60;99.90;;;;;;4841771;29;20983;-58
2023/03/10 06:14:34;;;;;;;32.10;21.50;;;1.60;99.90;;;;;;4836404;29;20477;-58
2023/03/10 06:17:02;;;;;;;33.47;22.90;;;1.50;99.90;;;;;;4841212;29;20537;-58
2023/03/10 06:19:30;;;;;;;30.90;21.13;;;1.50;99.90;;;;;;4835470;29;20472;-58
2023/03/10 06:21:58;;;;;;;32.13;21.33;;;1.50;99.90;;;;;;4837213;29;20474;-58
2023/03/10 06:24:29;;;;;;;33.40;21.00;;;1.50;99.90;;;;;;4846304;29;20483;-58
2023/03/10 06:26:57;;;;;;;33.93;22.27;;;1.40;99.90;;;;;;4844885;29;20490;-58
2023/03/10 06:29:25;;;;;;;32.10;21.93;;;1.40;99.90;;;;;;4849726;29;21018;-57
2023/03/10 06:31:53;;;;;;;32.90;21.17;;;1.40;99.90;;;;;;4844451;29;20580;-58
2023/03/10 06:34:22;;;;;;;37.13;23.73;;;1.50;99.90;;;;;;4843339;29;20524;-58
2023/03/10 06:36:50;;;;;;;37.43;22.90;;;1.40;99.90;;;;;;4844434;29;20487;-58
2023/03/10 06:39:18;;;;;;;33.53;21.40;;;1.50;99.90;;;;;;4838373;29;21001;-58
2023/03/10 06:41:50;;;;;;;34.43;23.17;;;1.50;99.90;;;;;;4839801;29;20484;-58
2023/03/10 06:44:18;;;;;;;33.37;21.80;;;1.50;99.90;;;;;;4838111;29;20477;-58
2023/03/10 06:46:46;;;;;;;34.10;22.10;;;1.50;99.90;;;;;;4842466;29;20528;-58
2023/03/10 06:49:14;;;;;;;34.13;22.13;;;1.40;99.90;;;;;;4845578;29;20895;-58
2023/03/10 06:51:43;;;;;;;33.00;22.20;;;1.40;99.90;;;;;;4838042;29;20474;-57
2023/03/10 06:54:11;;;;;;;30.90;21.53;;;1.50;99.90;;;;;;4851337;29;20476;-59
2023/03/10 06:56:39;;;;;;;32.77;21.70;;;1.40;99.90;;;;;;4849447;29;20472;-58
2023/03/10 06:59:08;;;;;;;33.40;21.27;;;1.50;99.90;;;;;;4847865;29;20484;-58
2023/03/10 07:01:36;;;;;;;32.90;21.57;;;1.40;99.90;;;;;;4841598;29;20492;-58
2023/03/10 07:04:04;;;;;;;31.73;20.57;;;1.40;99.90;;;;;;4837672;29;20472;-58
2023/03/10 07:06:32;;;;;;;30.60;21.17;;;1.40;99.90;;;;;;4843732;29;20520;-58
2023/03/10 07:09:00;;;;;;;33.23;21.83;;;1.40;99.90;;;;;;4843858;29;20499;-58
2023/03/10 07:11:29;;;;;;;33.73;21.60;;;1.40;99.90;;;;;;4841379;29;20997;-58
2023/03/10 07:13:57;;;;;;;30.27;21.23;;;1.50;99.90;;;;;;4836566;29;20501;-57
2023/03/10 07:16:26;;;;;;;28.90;19.77;;;1.50;99.90;;;;;;4836614;29;20480;-57
2023/03/10 07:18:54;;;;;;;27.73;18.23;;;1.50;99.90;;;;;;4838053;29;20484;-58
2023/03/10 07:21:22;;;;;;;30.77;19.93;;;1.60;99.90;;;;;;4843523;29;20481;-58
2023/03/10 07:23:50;;;;;;;30.50;19.80;;;1.60;99.90;;;;;;4843139;29;20977;-58
2023/03/10 07:26:19;;;;;;;30.97;20.27;;;1.50;99.90;;;;;;4839728;29;20993;-57
2023/03/10 07:28:47;;;;;;;30.97;21.20;;;1.50;99.90;;;;;;4839878;29;20495;-58
2023/03/10 07:31:16;;;;;;;28.77;20.50;;;1.50;99.90;;;;;;4852050;29;20480;-58
2023/03/10 07:33:46;;;;;;;27.40;18.90;;;1.50;99.90;;;;;;4852808;29;20905;-58
2023/03/10 07:36:16;;;;;;;29.50;20.20;;;1.50;99.90;;;;;;4861316;29;20837;-58
2023/03/10 07:38:45;;;;;;;29.77;20.30;;;1.50;99.90;;;;;;4854050;29;20478;-58
2023/03/10 07:41:16;;;;;;;26.97;19.80;;;1.60;99.90;;;;;;4853991;29;20996;-58
2023/03/10 07:43:44;;;;;;;29.03;19.73;;;1.60;99.90;;;;;;4844331;29;20515;-58
2023/03/10 07:46:14;;;;;;;28.47;19.43;;;1.50;99.90;;;;;;4843641;29;21037;-58
2023/03/10 07:48:43;;;;;;;30.00;19.70;;;1.60;99.90;;;;;;4842215;29;20496;-56
2023/03/10 07:51:13;;;;;;;28.57;20.47;;;1.70;99.90;;;;;;4842676;29;20995;-57
2023/03/10 07:53:41;;;;;;;28.10;19.13;;;1.60;99.90;;;;;;4844360;29;20486;-57
2023/03/10 07:56:11;;;;;;;26.40;18.47;;;1.60;99.90;;;;;;4840729;29;21064;-58
2023/03/10 07:58:39;;;;;;;29.23;20.37;;;1.70;99.90;;;;;;4846819;29;20477;-57
2023/03/10 08:01:13;;;;;;;27.80;19.57;;;1.70;99.90;;;;;;4838274;29;20871;-56
2023/03/10 08:03:43;;;;;;;28.23;19.93;;;1.70;99.90;;;;;;4840955;29;20510;-57
2023/03/10 08:06:18;;;;;;;30.67;20.83;;;1.70;99.90;;;;;;4839293;29;20485;-57
2023/03/10 08:08:46;;;;;;;29.70;20.57;;;1.70;99.90;;;;;;4836647;29;20492;-57
2023/03/10 08:11:15;;;;;;;30.43;20.03;;;1.70;99.90;;;;;;4839186;29;20476;-57
2023/03/10 08:13:44;;;;;;;27.80;18.93;;;1.70;99.90;;;;;;4837973;29;20513;-58
2023/03/10 08:16:13;;;;;;;29.03;20.27;;;1.60;99.90;;;;;;4839001;29;20484;-57
2023/03/10 08:18:42;;;;;;;27.87;19.03;;;1.70;99.90;;;;;;4837910;29;20468;-57
2023/03/10 08:21:11;;;;;;;26.33;18.13;;;1.70;99.90;;;;;;4838925;29;20482;-57
2023/03/10 08:23:40;;;;;;;28.27;18.83;;;1.70;99.90;;;;;;4838162;29;21012;-57
2023/03/10 08:26:12;;;;;;;25.90;18.90;;;1.70;99.90;;;;;;4838297;29;20470;-57
2023/03/10 08:28:41;;;;;;;26.13;17.97;;;1.60;99.90;;;;;;4838065;29;20502;-57
2023/03/10 08:31:11;;;;;;;29.83;19.07;;;1.70;99.90;;;;;;4837289;29;20565;-57
2023/03/10 08:33:39;;;;;;;28.77;19.30;;;1.70;99.90;;;;;;4837614;29;20830;-57
2023/03/10 08:36:11;;;;;;;26.00;18.50;;;1.70;99.90;;;;;;4838234;29;20480;-57
2023/03/10 08:38:40;;;;;;;26.87;17.70;;;1.60;99.90;;;;;;4837679;29;20488;-57
2023/03/10 08:41:14;;;;;;;27.63;18.63;;;1.60;99.90;;;;;;4838646;29;20484;-57
2023/03/10 08:43:43;;;;;;;25.53;18.70;;;1.60;99.90;;;;;;4837772;29;20520;-57
2023/03/10 08:46:13;;;;;;;26.67;18.20;;;1.60;99.90;;;;;;4840807;29;20472;-57
2023/03/10 08:48:41;;;;;;;24.90;17.67;;;1.60;99.90;;;;;;4837876;29;20476;-57
2023/03/10 08:51:10;;;;;;;25.27;18.27;;;1.60;99.90;;;;;;4838829;29;20494;-57
2023/03/10 08:53:45;;;;;;;25.43;17.67;;;1.60;99.90;;;;;;4840404;29;20827;-57
2023/03/10 08:56:14;;;;;;;28.03;19.07;;;1.70;99.90;;;;;;4838598;29;20994;-57
2023/03/10 08:58:42;;;;;;;27.43;18.67;;;1.70;99.90;;;;;;4845207;29;20475;-56
2023/03/10 09:01:11;;;;;;;25.50;18.03;;;1.60;99.90;;;;;;4849275;29;20484;-57
2023/03/10 09:03:40;;;;;;;26.23;17.60;;;1.60;99.90;;;;;;4853875;29;20476;-57
2023/03/10 09:06:09;;;;;;;25.87;16.97;;;1.70;99.90;;;;;;4845296;29;20509;-57
2023/03/10 09:08:38;;;;;;;31.37;19.57;;;1.70;99.90;;;;;;4844973;29;20871;-57
2023/03/10 09:11:08;;;;;;;26.00;17.13;;;1.70;99.90;;;;;;4841230;29;20518;-57
2023/03/10 09:13:36;;;;;;;26.73;17.97;;;1.70;99.90;;;;;;4841179;29;20497;-57
2023/03/10 09:16:04;;;;;;;27.07;18.30;;;1.70;99.90;;;;;;4839303;29;20842;-58
2023/03/10 09:18:33;;;;;;;26.37;18.50;;;1.70;99.90;;;;;;4854085;29;20552;-57
2023/03/10 09:21:01;;;;;;;27.10;18.03;;;1.70;99.90;;;;;;4851915;29;20785;-57
2023/03/10 09:23:30;;;;;;;29.50;19.67;;;1.70;99.90;;;;;;4852022;29;21052;-57
2023/03/10 09:25:59;;;;;;;27.73;18.93;;;1.70;99.90;;;;;;4849112;29;20481;-58
2023/03/10 09:28:28;;;;;;;28.27;18.60;;;1.80;99.90;;;;;;4855089;29;20477;-57
2023/03/10 09:30:56;;;;;;;29.67;19.60;;;1.80;99.90;;;;;;4855366;29;20501;-58
2023/03/10 09:33:24;;;;;;;28.63;19.17;;;1.80;99.90;;;;;;4847258;29;20894;-57
2023/03/10 09:35:55;;;;;;;28.90;18.47;;;1.70;99.90;;;;;;4847785;29;20478;-57
2023/03/10 09:38:36;;;;;;;26.63;18.73;;;1.70;99.90;;;;;;4854005;29;21011;-58
2023/03/10 09:41:18;;;;;;;30.13;19.63;;;1.70;99.90;;;;;;4842362;29;20478;-57
2023/03/10 09:43:57;;;;;;;29.20;19.33;;;1.70;99.90;;;;;;4842634;29;20465;-57
2023/03/10 09:46:30;;;;;;;27.50;19.10;;;1.70;99.90;;;;;;4843320;29;20981;-57
2023/03/10 09:49:05;;;;;;;26.90;18.23;;;1.70;99.90;;;;;;4842428;29;20481;-57
2023/03/10 09:51:33;;;;;;;28.67;18.27;;;1.70;99.90;;;;;;4857891;29;20474;-58
2023/03/10 09:54:25;;;;;;;28.97;20.20;;;1.70;99.90;;;;;;4849945;29;21105;-58
2023/03/10 09:56:54;;;;;;;30.77;19.13;;;1.70;99.90;;;;;;4838691;29;20970;-57
2023/03/10 09:59:31;;;;;;;29.07;19.53;;;1.70;99.90;;;;;;4838908;29;20473;-58
2023/03/10 10:02:01;;;;;;;27.80;18.57;;;1.70;99.90;;;;;;4845206;29;20842;-58
2023/03/10 10:04:35;;;;;;;30.73;20.70;;;1.70;99.90;;;;;;4841018;29;20488;-58
2023/03/10 10:07:13;;;;;;;28.77;19.10;;;1.80;99.90;;;;;;4836949;29;20494;-57
2023/03/10 10:09:47;;;;;;;28.47;19.27;;;1.70;99.90;;;;;;4834694;29;20855;-57
2023/03/10 10:12:17;;;;;;;28.87;19.47;;;1.70;99.90;;;;;;4837615;29;20488;-58
2023/03/10 10:14:46;;;;;;;28.77;19.23;;;1.70;99.90;;;;;;4835119;29;21241;-58
2023/03/10 10:17:37;;;;;;;29.17;20.00;;;1.80;99.90;;;;;;4835704;29;20522;-57
2023/03/10 10:20:22;;;;;;;30.53;18.60;;;1.80;99.90;;;;;;4836088;29;20477;-58
2023/03/10 10:22:50;;;;;;;30.80;20.00;;;1.80;99.90;;;;;;4836288;29;21010;-57
2023/03/10 10:25:22;;;;;;;29.97;19.77;;;1.80;99.90;;;;;;4836188;29;20481;-58
2023/03/10 10:27:52;;;;;;;28.60;18.90;;;1.80;99.90;;;;;;4836694;29;20486;-58
2023/03/10 10:30:34;;;;;;;31.03;19.07;;;1.90;99.90;;;;;;4835513;29;20502;-57
2023/03/10 10:33:04;;;;;;;30.30;19.97;;;1.80;99.90;;;;;;4833582;29;20573;-57
2023/03/10 10:35:34;;;;;;;29.23;20.47;;;1.80;99.90;;;;;;4830441;29;21005;-58
2023/03/10 10:38:05;;;;;;;30.10;19.77;;;1.90;99.90;;;;;;4830663;29;20478;-58
2023/03/10 10:40:36;;;;;;;31.97;20.00;;;1.80;99.90;;;;;;4829836;29;20823;-57
2023/03/10 10:43:06;;;;;;;30.33;20.07;;;1.80;99.90;;;;;;4831914;29;21049;-58
2023/03/10 10:45:39;;;;;;;33.03;20.77;;;1.90;99.90;;;;;;4832261;29;20569;-58
2023/03/10 10:48:32;;;;;;;31.90;20.20;;;1.80;99.90;;;;;;4831226;29;20473;-58
2023/03/10 10:51:01;;;;;;;31.90;19.93;;;1.80;99.90;;;;;;4833048;29;20492;-58
2023/03/10 10:53:33;;;;;;;31.37;20.07;;;1.80;99.90;;;;;;4837021;29;21183;-58
2023/03/10 10:56:04;;;;;;;32.83;21.17;;;1.80;99.90;;;;;;4833858;29;20489;-58
2023/03/10 10:58:35;;;;;;;31.47;19.93;;;1.80;99.90;;;;;;4832999;29;20483;-58
2023/03/10 11:01:07;;;;;;;31.90;21.03;;;1.80;99.90;;;;;;4838361;29;21228;-58
2023/03/10 11:03:37;;;;;;;32.57;20.57;;;1.80;99.90;;;;;;4837450;29;20553;-57
2023/03/10 11:06:14;;;;;;;30.93;20.03;;;1.80;99.90;;;;;;4838041;29;20484;-58
2023/03/10 11:08:49;;;;;;;30.30;19.70;;;1.70;99.90;;;;;;4834794;29;20474;-58
2023/03/10 11:11:29;;;;;;;28.93;19.13;;;1.70;99.90;;;;;;4836478;29;20492;-58
2023/03/10 11:14:12;;;;;;;33.80;21.43;;;1.80;99.90;;;;;;4836229;29;20481;-57
2023/03/10 11:16:52;;;;;;;29.57;20.97;;;1.80;99.90;;;;;;4834888;29;20554;-57
2023/03/10 11:19:28;;;;;;;33.33;21.13;;;1.80;99.90;;;;;;4833370;29;20490;-57
2023/03/10 11:22:04;;;;;;;32.43;20.93;;;1.80;99.90;;;;;;4835496;29;20478;-58
2023/03/10 11:24:40;;;;;;;30.53;19.53;;;1.90;99.90;;;;;;4831326;29;20470;-58
2023/03/10 11:27:15;;;;;;;33.30;21.00;;;1.90;99.90;;;;;;4834507;29;20534;-58
2023/03/10 11:41:49;;;;;;;31.00;18.33;;;1.80;99.90;;;;;;4838764;29;20977;-57
2023/03/10 11:44:27;;;;;;;32.23;19.97;;;1.80;99.90;;;;;;4838057;29;20981;-58
2023/03/10 11:47:04;;;;;;;35.60;21.27;;;1.80;99.90;;;;;;4837606;29;20572;-57
2023/03/10 11:49:37;;;;;;;32.67;20.53;;;1.80;99.90;;;;;;4837647;29;20492;-57
2023/03/10 11:52:12;;;;;;;30.83;20.47;;;1.80;99.90;;;;;;4838481;29;21018;-58
2023/03/10 11:54:43;;;;;;;30.90;20.07;;;1.80;99.90;;;;;;4837543;29;20483;-58
2023/03/10 11:57:17;;;;;;;35.33;20.33;;;1.80;99.90;;;;;;4837994;29;21007;-57
2023/03/10 11:59:50;;;;;;;33.60;20.97;;;1.80;99.90;;;;;;4838861;29;20974;-58
2023/03/10 12:02:23;;;;;;;33.63;20.83;;;1.70;99.90;;;;;;4838224;29;20493;-57
2023/03/10 12:04:58;;;;;;;33.53;21.13;;;1.80;99.90;;;;;;4835770;29;20488;-58
2023/03/10 12:07:31;;;;;;;34.43;20.90;;;1.80;99.90;;;;;;4837757;29;20985;-58
2023/03/10 12:10:03;;;;;;;34.03;21.07;;;1.90;99.90;;;;;;4837554;29;20492;-58
2023/03/10 12:12:33;;;;;;;35.00;21.73;;;1.90;99.90;;;;;;4838973;29;20473;-57
2023/03/10 12:15:04;;;;;;;30.63;20.43;;;1.80;99.90;;;;;;4837665;29;20489;-57
2023/03/10 12:17:33;;;;;;;36.80;23.03;;;1.90;99.90;;;;;;4839023;29;20485;-56
2023/03/10 12:20:10;;;;;;;32.33;21.23;;;1.80;99.90;;;;;;4839070;29;20868;-57
2023/03/10 12:22:41;;;;;;;35.33;21.87;;;1.80;99.90;;;;;;4838143;29;20492;-57
2023/03/10 12:25:42;;;;;;;34.97;22.57;;;1.90;99.90;;;;;;4837548;29;20504;-57
2023/03/10 12:28:23;;;;;;;33.53;21.47;;;1.90;99.90;;;;;;4837712;29;20483;-58
2023/03/10 12:30:55;;;;;;;35.63;21.80;;;1.80;99.90;;;;;;4836970;29;20513;-57
2023/03/10 12:33:47;;;;;;;32.80;21.80;;;1.80;99.90;;;;;;4838219;29;21050;-57
2023/03/10 12:36:33;;;;;;;32.77;22.37;;;1.80;99.90;;;;;;4837698;29;20485;-57
2023/03/10 12:39:21;;;;;;;30.50;20.57;;;1.90;99.90;;;;;;4836552;29;20482;-57
2023/03/10 12:41:51;;;;;;;33.00;21.23;;;2.00;99.90;;;;;;4837902;29;20474;-58
2023/03/10 12:44:34;;;;;;;32.63;20.60;;;1.80;99.90;;;;;;4837492;29;20470;-56
2023/03/10 12:47:15;;;;;;;32.93;21.23;;;1.80;99.90;;;;;;4837907;29;20492;-57
2023/03/10 12:49:50;;;;;;;32.37;21.60;;;1.80;99.90;;;;;;4836831;29;20477;-57
2023/03/10 12:52:27;;;;;;;31.40;20.27;;;1.80;99.90;;;;;;4837497;29;20515;-58
2023/03/10 12:55:07;;;;;;;33.73;21.83;;;2.00;99.90;;;;;;4837105;29;20508;-58
2023/03/10 12:57:40;;;;;;;30.77;21.50;;;1.90;99.90;;;;;;4837121;29;21373;-58
2023/03/10 13:00:20;;;;;;;32.53;20.17;;;2.00;99.90;;;;;;4837213;29;20489;-58
2023/03/10 13:02:52;;;;;;;30.47;21.20;;;2.00;99.90;;;;;;4835414;29;20579;-58
2023/03/10 13:05:24;;;;;;;31.77;20.03;;;2.10;99.90;;;;;;4838414;29;20832;-58
2023/03/10 13:07:59;;;;;;;30.63;21.57;;;2.00;99.90;;;;;;4838279;29;20473;-58